Latest Coastal Weather Observations for Port Hedland

IDW60701

Issued at 6:32 am WST Saturday 6 February 2016 (issued every 10 minutes, with the page automatically refreshed every 10 minutes)

About coastal observations | Map of coastal stations | Coastal observations for WA | Marine services | Other Formats
Station Details ID: 004032 Name: PORT HEDLAND AIRPORT Lat: -20.37 Lon: 118.63 Height: 6.4 m
Data from the previous 72 hours. | See also: Recent months at Port Hedland
Date/Time
WST
Temp

°C
Wind Pressure Rain
since 9am
mm
Weather Cloud Vis
km
Sea
Height
m
Swell
Dir
 
Speed
knots
Gust
knots
hPa Trend Height
m
Period
s
Dir
06/06:30am 27.5 WSW 5 6 1008.1 - 0.0 - - 10 - - - -
06/06:00am 26.7 W 5 6 1007.7 - 0.0 - - 10 - - - -
06/05:30am 26.8 W 5 6 1007.4 - 0.0 - - 10 - - - -
06/05:00am 27.0 W 6 7 1007.2 - 0.0 - - 10 - - - -
06/04:30am 27.1 W 7 8 1007.1 - 0.0 - - 10 - - - -
06/04:00am 27.3 W 7 8 1007.0 - 0.0 - - 10 - - - -
06/03:30am 27.3 WNW 5 6 1007.0 - 0.0 - - 10 - - - -
06/03:00am 27.5 WNW 7 9 1006.9 - 0.0 - - 10 - - - -
06/02:30am 27.7 W 9 11 1006.9 - 0.0 - - 10 - - - -
06/02:00am 27.9 W 9 11 1007.0 - 0.0 - - 10 - - - -
06/01:30am 28.1 W 10 13 1007.0 - 0.0 - - 10 - - - -
06/01:00am 28.3 WNW 7 8 1007.3 - 0.0 - - 10 - - - -
06/12:30am 28.4 W 7 9 1007.5 - 0.0 - - 10 - - - -
06/12:00am 28.3 W 7 8 1007.7 - 0.0 - - 10 - - - -
 
Date/Time
WST
Temp

°C
Wind Pressure Rain
since 9am
mm
Weather Cloud Vis
km
Sea
Height
m
Swell
Dir
 
Speed
knots
Gust
knots
hPa Trend Height
m
Period
s
Dir
05/11:30pm 28.7 W 7 9 1008.2 - 0.0 - Partly cloudy 10 - - - -
05/11:00pm 28.9 W 7 8 1008.5 - 0.0 - Partly cloudy 10 - - - -
05/10:30pm 29.1 W 8 11 1008.4 - 0.0 - - 10 - - - -
05/10:00pm 29.3 W 9 12 1008.2 - 0.0 - - 10 - - - -
05/09:30pm 29.5 W 10 13 1007.9 - 0.0 - - 10 - - - -
05/09:00pm 29.6 WNW 11 14 1007.3 - 0.0 - - 10 - - - -
05/08:30pm 29.7 WNW 11 14 1007.1 - 0.0 - Partly cloudy 10 - - - -
05/08:00pm 30.0 WNW 11 13 1006.7 - 0.0 - - 10 - - - -
05/07:30pm 30.1 WNW 11 14 1006.2 - 0.0 - - 10 - - - -
05/07:00pm 30.4 WNW 13 16 1005.8 - 0.0 - - 10 - - - -
05/06:30pm 31.1 WNW 13 17 1005.3 - 0.0 - - 10 - - - -
05/06:00pm 32.4 NW 13 18 1004.8 - 0.0 - - 10 - - - -
05/05:30pm 33.0 NW 14 19 1004.5 - 0.0 - - 10 - - - -
05/05:00pm 33.1 NW 16 19 1004.3 - 0.0 - - 10 - - - -
05/04:30pm 34.1 NW 16 21 1004.2 - 0.0 - - 10 - - - -
05/04:00pm 34.6 NW 15 19 1004.5 - 0.0 - - 10 - - - -
05/03:30pm 35.8 NNW 16 20 1004.6 - 0.0 - - 10 - - - -
05/03:00pm 36.1 NNW 15 20 1004.7 - 0.0 - - 10 - - - -
05/02:30pm 36.2 N 14 18 1005.0 - 0.0 - - 10 - - - -
05/02:00pm 36.9 N 14 17 1005.0 - 0.0 - - 10 - - - -
05/01:30pm 37.3 NNE 11 17 1005.2 - 0.0 - - 10 - - - -
05/01:00pm 37.4 N 11 13 1005.4 - 0.0 - - 10 - - - -
05/12:30pm 38.0 NE 9 14 1005.8 - 0.0 - - 10 - - - -
05/12:00pm 38.8 ENE 10 16 1006.2 - 0.0 - - 10 - - - -
05/11:30am 38.2 E 11 18 1007.0 - 0.0 - - 10 - - - -
05/11:00am 38.0 E 13 18 1007.5 - 0.0 - - 10 - - - -
05/10:30am 36.7 ESE 11 19 1007.9 - 0.0 - - 10 - - - -
05/10:00am 36.5 E 11 16 1008.1 - 0.0 - - 10 - - - -
05/09:30am 35.7 ESE 12 16 1008.6 - 0.0 - - 10 - - - -
05/09:00am 35.2 SE 9 13 1008.8 - 0.0 - - 10 - - - -
05/08:30am 33.2 S 8 13 1009.0 - 0.0 - - 10 - - - -
05/08:00am 31.1 SW 9 13 1008.9 - 0.0 - - 10 - - - -
05/07:30am 29.6 SW 9 11 1009.0 - 0.0 - - 10 - - - -
05/07:00am 28.5 SW 6 10 1009.0 - 0.0 - - 10 - - - -
05/06:30am 27.4 SSW 4 6 1008.8 - 0.0 - Partly cloudy 10 - - - -
05/06:00am 26.8 WSW 11 12 1008.2 - 0.0 - Mostly clear 10 - - - -
05/05:30am 26.8 W 8 9 1008.1 - 0.0 - Partly cloudy 10 - - - -
05/05:00am 27.0 W 10 12 1007.8 - 0.0 - - 10 - - - -
05/04:30am 27.0 W 9 10 1007.6 - 0.0 - Partly cloudy 10 - - - -
05/04:00am 26.8 W 8 11 1007.7 - 0.0 - Partly cloudy 10 - - - -
05/03:30am 26.9 W 8 11 1007.6 - 0.0 - Partly cloudy 10 - - - -
05/03:00am 26.7 W 7 9 1007.5 - 0.0 - - 10 - - - -
05/02:30am 27.1 W 9 10 1007.6 - 0.0 - - 10 - - - -
05/02:00am 27.0 W 7 9 1007.8 - 0.0 - Partly cloudy 10 - - - -
05/01:30am 27.3 W 8 10 1008.0 - 0.0 - Partly cloudy 10 - - - -
05/01:00am 27.1 W 8 9 1008.3 - 0.0 - - 10 - - - -
05/12:30am 27.3 W 8 9 1008.4 - 0.0 - - 10 - - - -
05/12:00am 27.5 W 9 11 1008.3 - 0.0 - - 10 - - - -
 
Date/Time
WST
Temp

°C
Wind Pressure Rain
since 9am
mm
Weather Cloud Vis
km
Sea
Height
m
Swell
Dir
 
Speed
knots
Gust
knots
hPa Trend Height
m
Period
s
Dir
04/11:30pm 27.6 W 10 12 1008.4 - 0.0 - - 10 - - - -
04/11:00pm 27.8 W 9 12 1008.7 - 0.0 - - 10 - - - -
04/10:30pm 28.0 W 10 13 1008.7 - 0.0 - - 10 - - - -
04/10:00pm 28.2 W 10 13 1008.6 - 0.0 - - 10 - - - -
04/09:30pm 28.4 W 12 14 1008.4 - 0.0 - - 10 - - - -
04/09:00pm 28.5 W 13 16 1008.0 - 0.0 - - 10 - - - -
04/08:30pm 28.7 W 11 15 1007.9 - 0.0 - - 10 - - - -
04/08:00pm 29.0 W 13 17 1007.6 - 0.0 - - 10 - - - -
04/07:30pm 29.3 WNW 12 15 1007.3 - 0.0 - - 10 - - - -
04/07:00pm 29.7 WNW 12 15 1007.0 - 0.0 - - 10 - - - -
04/06:30pm 30.6 NW 12 16 1006.6 - 0.0 - - 10 - - - -
04/06:00pm 31.4 NNW 14 17 1006.2 - 0.0 - - 10 - - - -
04/05:30pm 32.0 N 16 19 1006.1 - 0.0 - - 10 - - - -
04/05:00pm 33.1 N 15 19 1005.9 - 0.0 - - 10 - - - -
04/04:30pm 33.4 NNW 16 20 1005.9 - 0.0 - - 10 - - - -
04/04:00pm 33.3 N 16 20 1006.1 - 0.0 - - 10 - - - -
04/03:30pm 34.4 N 15 18 1006.2 - 0.0 - - 10 - - - -
04/03:00pm 34.7 NNW 15 19 1006.3 F 0.0 Fine Mostly clear 30 - - - -
04/02:30pm 35.5 N 13 18 1006.5 - 0.0 - - 10 - - - -
04/02:00pm 35.6 NNE 15 18 1006.8 - 0.0 - - 10 - - - -
04/01:30pm 36.6 NNE 13 17 1007.1 - 0.0 - - 10 - - - -
04/01:00pm 37.5 NE 13 18 1007.5 - 0.0 - - 10 - - - -
04/12:30pm 37.2 ENE 12 17 1007.9 - 0.0 - - 10 - - - -
04/12:00pm 36.5 ESE 10 15 1008.3 F 0.0 Fine Mostly clear 30 - - - -
04/11:30am 37.0 E 11 15 1008.8 - 0.0 - - 10 - - - -
04/11:00am 35.9 E 14 18 1009.3 - 0.0 - - 10 - - - -
04/10:30am 35.3 ESE 12 20 1009.7 - 0.0 - - 10 - - - -
04/10:00am 34.4 ESE 12 15 1010.0 - 0.0 - - 10 - - - -
04/09:30am 33.6 ESE 15 22 1010.1 - 0.0 - - 10 - - - -
04/09:00am 33.3 ESE 14 20 1010.1 F 0.0 Fine Mostly clear 30 - - - -
04/08:30am 32.0 ESE 12 22 1010.3 - 0.0 - - 10 - - - -
04/08:00am 30.8 SSE 8 11 1010.2 - 0.0 - - 10 - - - -
04/07:30am 29.5 S 6 8 1009.9 - 0.0 - - 10 - - - -
04/07:00am 28.0 SSE 5 6 1009.9 - 0.0 - - 10 - - - -
04/06:30am 26.7 SSE 4 5 1009.8 - 0.0 - - 10 - - - -
04/06:00am 25.8 SSE 4 5 1009.3 R 0.0 Fine Mostly clear 30 - - - -
04/05:30am 25.9 SSW 3 4 1009.2 - 0.0 - - 10 - - - -
04/05:00am 25.8 SSW 4 5 1008.9 - 0.0 - - 10 - - - -
04/04:30am 25.8 SW 4 5 1008.8 - 0.0 - - 10 - - - -
04/04:00am 25.9 SW 5 5 1008.5 - 0.0 - - 10 - - - -
04/03:30am 26.1 SW 5 6 1008.5 - 0.0 - - 10 - - - -
04/03:00am 26.1 WSW 5 6 1008.4 - 0.0 - - 10 - - - -
04/02:30am 26.3 WSW 6 7 1008.7 - 0.0 - - 10 - - - -
04/02:00am 26.4 WSW 5 6 1008.8 - 0.0 - - 10 - - - -
04/01:30am 26.7 WSW 5 6 1008.9 - 0.0 - Partly cloudy 10 - - - -
04/01:00am 27.0 WSW 6 7 1009.1 - 0.0 - Partly cloudy 10 - - - -
04/12:30am 27.1 WSW 6 7 1009.3 - 0.0 - Partly cloudy 10 - - - -
04/12:00am 27.3 WSW 7 9 1009.3 - 0.0 - Mostly clear 10 - - - -
 
Date/Time
WST
Temp

°C
Wind Pressure Rain
since 9am
mm
Weather Cloud Vis
km
Sea
Height
m
Swell
Dir
 
Speed
knots
Gust
knots
hPa Trend Height
m
Period
s
Dir
03/11:30pm 27.5 WSW 8 9 1009.7 - 0.0 - Partly cloudy 10 - - - -
03/11:00pm 27.8 W 8 11 1009.8 - 0.0 - Partly cloudy 10 - - - -
03/10:30pm 27.6 WNW 7 9 1009.6 - 0.0 - Partly cloudy 10 - - - -
03/10:00pm 27.7 WNW 8 9 1009.6 - 0.0 - - 10 - - - -
03/09:30pm 27.8 WNW 8 10 1009.3 - 0.0 - - 10 - - - -
03/09:00pm 27.9 WNW 9 11 1008.7 - 0.0 - - 10 - - - -
03/08:30pm 28.0 NW 9 11 1008.5 - 0.0 - - 10 - - - -
03/08:00pm 28.1 NW 11 13 1008.1 - 0.0 - - 10 - - - -
03/07:30pm 28.2 NW 10 13 1007.7 - 0.0 - - 10 - - - -
03/07:00pm 28.5 NW 11 14 1007.4 - 0.0 - - 10 - - - -
03/06:30pm 29.0 NW 13 16 1007.1 - 0.0 - - 10 - - - -
03/06:00pm 29.9 NW 13 16 1006.7 - 0.0 - - 10 - - - -
03/05:30pm 31.0 NNW 13 19 1006.7 - 0.0 - - 10 - - - -
03/05:00pm 31.3 NNW 12 16 1006.5 - 0.0 - Partly cloudy 10 - - - -
03/04:30pm 31.8 NNW 11 16 1006.2 - 0.0 - - 10 - - - -
03/04:00pm 31.9 NNW 12 17 1006.3 - 0.0 - - 10 - - - -
03/03:30pm 32.7 NNW 12 16 1006.4 - 0.0 - - 10 - - - -
03/03:00pm 32.6 NNW 15 19 1006.4 S 0.0 Fine Partly cloudy 30 - - - -
03/02:30pm 33.7 N 12 16 1006.7 - 0.0 - Partly cloudy 10 - - - -
03/02:00pm 33.3 NNW 9 13 1006.9 - 0.0 - Partly cloudy 10 - - - -
03/01:30pm 33.0 NNE 10 17 1007.2 - 0.0 - Partly cloudy 10 - - - -
03/01:00pm 32.5 NNE 9 14 1007.5 - 0.0 - Partly cloudy 10 - - - -
03/12:30pm 32.2 NNE 11 13 1007.9 - 0.0 - Partly cloudy 10 - - - -
03/12:00pm 32.3 NNE 9 12 1008.1 F 0.0 Fine Partly cloudy 30 - - - -
03/11:30am 31.6 NE 8 13 1008.6 - 0.0 - Partly cloudy 10 - - - -
03/11:00am 32.9 E 8 14 1008.9 - 0.0 - Partly cloudy 10 - - - -
03/10:30am 32.0 E 9 13 1009.2 - 0.0 - Partly cloudy 10 - - - -
03/10:00am 31.9 E 7 14 1009.5 - 0.0 - Mostly clear 10 - - - -
03/09:30am 31.3 ESE 8 11 1009.8 - 0.0 - Partly cloudy 10 - - - -
03/09:00am 30.6 ESE 7 12 1009.7 R 0.0 Fine Partly cloudy 30 - - - -
03/08:30am 30.8 E 6 9 1009.6 - 0.0 - - 10 - - - -
03/08:00am 28.8 NE 9 11 1009.5 - 0.0 - - 10 - - - -
03/07:30am 28.2 ENE 8 10 1009.3 - 0.0 - - 10 - - - -
03/07:00am 27.2 ENE 7 8 1009.1 - 0.0 - Partly cloudy 10 - - - -

Other Formats:

Comma delimited format used in spreadsheet applications
http://www.bom.gov.au/fwo/IDW60701/IDW60701.94312.axf

JavaScript Object Notation format (JSON) in row-major order
http://www.bom.gov.au/fwo/IDW60701/IDW60701.94312.json